Terminal Aerodrome Forecast
Issued by NWS

Home | Current Version | Previous Version | Text Only | Print | Product List | Glossary On
Versions: 1 2 3 4 5 6 7 8 9 10 11 12 13 14
000
FTUS45 KLKN 081737
TAFEKO
TAF
KEKO 081737Z 0818/0918 07005KT 3SM -SN OVC015
      TEMPO 0818/0822 VRB03KT 1SM -SN OVC010
     FM082200 19007KT 6SM -SNRA OVC025
     FM090200 22007KT P6SM -RASN OVC030=

USA.gov is the U.S. government's official web portal to all federal, state and local government web resources and services.